createdAt,value
2023-02-12T00:01:01.367Z,77.77
2023-02-12T00:03:28.132Z,75.53
2023-02-12T00:05:55.018Z,75.53
2023-02-12T00:08:21.753Z,72.10
2023-02-12T00:10:48.310Z,73.57
2023-02-12T00:13:15.053Z,75.20
2023-02-12T00:15:42.760Z,76.47
2023-02-12T00:18:09.592Z,73.70
2023-02-12T00:20:37.870Z,74.03
2023-02-12T00:23:05.598Z,84.10
2023-02-12T00:25:32.804Z,73.07
2023-02-12T00:27:59.391Z,70.23
2023-02-12T00:30:26.497Z,72.60
2023-02-12T00:32:53.124Z,72.13
2023-02-12T00:35:19.717Z,75.30
2023-02-12T00:37:46.293Z,67.10
2023-02-12T00:40:13.244Z,68.97
2023-02-12T00:42:40.962Z,72.40
2023-02-12T00:45:08.289Z,68.70
2023-02-12T00:47:34.910Z,69.70
2023-02-12T00:50:01.528Z,71.00
2023-02-12T00:52:28.075Z,75.40
2023-02-12T00:54:54.605Z,73.67
2023-02-12T00:57:21.187Z,75.43
2023-02-12T00:59:47.783Z,72.27
2023-02-12T01:02:14.525Z,77.00
2023-02-12T01:04:41.107Z,74.80
2023-02-12T01:07:07.671Z,69.00
2023-02-12T01:09:34.264Z,78.10
2023-02-12T01:12:00.809Z,75.30
2023-02-12T01:14:27.424Z,74.23
2023-02-12T01:16:53.997Z,70.60
2023-02-12T01:19:20.575Z,62.80
2023-02-12T01:21:47.170Z,72.93
2023-02-12T01:24:13.899Z,74.60
2023-02-12T01:26:40.496Z,82.00
2023-02-12T01:29:07.996Z,71.73
2023-02-12T01:31:38.851Z,66.37
2023-02-12T01:34:07.282Z,69.83
2023-02-12T01:36:34.531Z,70.20
2023-02-12T01:39:02.863Z,73.90
2023-02-12T01:41:36.831Z,70.83
2023-02-12T01:44:15.816Z,71.40
2023-02-12T01:46:44.347Z,67.97
2023-02-12T01:49:39.628Z,80.27
2023-02-12T01:52:13.908Z,71.93
2023-02-12T01:54:41.515Z,69.63
2023-02-12T01:57:11.452Z,72.90
2023-02-12T01:59:40.298Z,67.80
2023-02-12T02:02:08.040Z,72.33
2023-02-12T02:04:43.926Z,70.50
2023-02-12T02:07:11.998Z,68.33
2023-02-12T02:09:40.075Z,70.23
2023-02-12T02:12:26.464Z,63.70
2023-02-12T02:14:56.255Z,69.77
2023-02-12T02:17:28.713Z,68.73
2023-02-12T02:20:14.122Z,70.03
2023-02-12T02:23:08.035Z,72.80
2023-02-12T02:25:57.171Z,71.60
2023-02-12T02:29:04.513Z,72.23
2023-02-12T02:32:06.234Z,67.03
2023-02-12T02:34:46.217Z,67.80
2023-02-12T02:37:19.394Z,66.43
2023-02-12T02:40:18.748Z,64.07
2023-02-12T02:42:59.351Z,68.33
2023-02-12T02:45:51.324Z,61.67
2023-02-12T02:48:38.670Z,67.07
2023-02-12T02:51:10.899Z,68.43
2023-02-12T02:53:45.184Z,67.87
2023-02-12T02:56:16.275Z,67.43
2023-02-12T02:58:48.214Z,71.13
2023-02-12T03:01:23.776Z,69.10
2023-02-12T03:04:13.883Z,65.50
2023-02-12T03:06:45.014Z,63.17
2023-02-12T03:09:36.074Z,65.97
2023-02-12T03:12:14.046Z,57.60
2023-02-12T03:14:48.992Z,64.27
2023-02-12T03:17:27.764Z,60.20
2023-02-12T03:20:02.697Z,62.77
2023-02-12T03:22:34.218Z,58.37
2023-02-12T03:25:15.076Z,66.93
2023-02-12T03:28:08.315Z,66.80
2023-02-12T03:30:49.866Z,63.93
2023-02-12T03:33:44.594Z,60.93
2023-02-12T03:36:22.199Z,67.77
2023-02-12T03:38:53.678Z,59.77
2023-02-12T03:41:26.405Z,55.63
2023-02-12T03:44:09.570Z,54.67
2023-02-12T03:46:50.955Z,53.40
2023-02-12T03:49:26.965Z,52.70
2023-02-12T03:51:53.921Z,54.03
2023-02-12T03:54:22.007Z,59.17
2023-02-12T03:57:01.299Z,55.90
2023-02-12T03:59:28.799Z,60.47
2023-02-12T04:01:59.408Z,56.73
2023-02-12T04:04:27.032Z,50.40
2023-02-12T04:06:54.389Z,53.83
2023-02-12T04:09:23.330Z,61.60
2023-02-12T04:12:11.564Z,63.47
2023-02-12T04:15:08.942Z,66.60
2023-02-12T04:17:41.399Z,62.73
2023-02-12T04:20:31.207Z,73.00
2023-02-12T04:23:28.892Z,68.07
2023-02-12T04:26:19.915Z,69.30
2023-02-12T04:29:17.236Z,72.83
2023-02-12T04:31:57.277Z,72.80
2023-02-12T04:34:43.373Z,77.27
2023-02-12T04:37:25.935Z,77.10
2023-02-12T04:39:53.960Z,74.83
2023-02-12T04:42:20.992Z,81.03
2023-02-12T04:44:47.618Z,79.23
2023-02-12T04:47:16.194Z,74.83
2023-02-12T04:49:43.099Z,75.40
2023-02-12T04:52:09.939Z,84.23
2023-02-12T04:54:36.718Z,81.70
2023-02-12T04:57:03.761Z,83.47
2023-02-12T04:59:30.415Z,89.60
2023-02-12T05:01:57.000Z,87.20
2023-02-12T05:04:23.563Z,80.63
2023-02-12T05:06:50.096Z,78.70
2023-02-12T05:09:19.069Z,78.30
2023-02-12T05:11:45.696Z,86.43
2023-02-12T05:14:12.752Z,88.93
2023-02-12T05:16:39.318Z,77.93
2023-02-12T05:19:06.159Z,84.03
2023-02-12T05:21:32.725Z,77.97
2023-02-12T05:24:01.778Z,82.10
2023-02-12T05:26:28.352Z,86.23
2023-02-12T05:28:54.935Z,73.93
2023-02-12T05:31:22.335Z,82.57
2023-02-12T05:33:49.900Z,79.13
2023-02-12T05:36:20.071Z,87.53
2023-02-12T05:38:46.811Z,91.00
2023-02-12T05:41:16.333Z,91.33
2023-02-12T05:43:43.514Z,82.77
2023-02-12T05:46:10.864Z,88.27
2023-02-12T05:48:38.877Z,89.47
2023-02-12T05:51:21.797Z,89.07
2023-02-12T05:53:50.480Z,85.23
2023-02-12T05:56:17.149Z,91.80
2023-02-12T05:58:47.686Z,88.50
2023-02-12T06:01:19.168Z,96.47
2023-02-12T06:03:45.860Z,95.80
2023-02-12T06:06:12.915Z,96.70
2023-02-12T06:08:40.425Z,94.07
2023-02-12T06:11:09.174Z,94.53
2023-02-12T06:13:35.757Z,91.70
2023-02-12T06:16:02.712Z,88.53
2023-02-12T06:18:29.708Z,91.00
2023-02-12T06:20:56.712Z,98.63
2023-02-12T06:23:24.862Z,92.17
2023-02-12T06:25:56.093Z,85.77
2023-02-12T06:28:23.118Z,90.83
2023-02-12T06:30:49.954Z,87.10
2023-02-12T06:33:16.557Z,82.67
2023-02-12T06:35:43.257Z,80.07
2023-02-12T06:38:09.889Z,81.87
2023-02-12T06:40:36.441Z,88.03
2023-02-12T06:43:03.079Z,81.33
2023-02-12T06:45:29.916Z,91.13
2023-02-12T06:47:56.504Z,84.50
2023-02-12T06:50:23.115Z,84.53
2023-02-12T06:52:49.745Z,72.83
2023-02-12T06:55:16.666Z,77.47
2023-02-12T06:57:43.542Z,89.83
2023-02-12T07:00:10.775Z,73.63
2023-02-12T07:02:39.001Z,69.90
2023-02-12T07:05:06.089Z,77.43
2023-02-12T07:07:33.408Z,84.80
2023-02-12T07:09:59.988Z,79.73
2023-02-12T07:12:26.551Z,77.37
2023-02-12T07:14:53.245Z,84.50
2023-02-12T07:17:19.807Z,88.20
2023-02-12T07:19:46.370Z,93.43
2023-02-12T07:22:12.907Z,84.37
2023-02-12T07:24:39.494Z,89.33
2023-02-12T07:27:06.149Z,84.97
2023-02-12T07:29:32.763Z,88.03
2023-02-12T07:31:59.398Z,88.40
2023-02-12T07:34:26.320Z,89.10
2023-02-12T07:36:52.899Z,85.53
2023-02-12T07:39:19.480Z,83.43
2023-02-12T07:41:46.058Z,87.10
2023-02-12T07:44:13.119Z,82.67
2023-02-12T07:46:48.154Z,86.00
2023-02-12T07:49:18.359Z,87.13
2023-02-12T07:51:45.719Z,81.63
2023-02-12T07:54:12.688Z,87.70
2023-02-12T07:56:40.999Z,85.57
2023-02-12T07:59:13.901Z,75.00
2023-02-12T08:01:51.367Z,68.40
2023-02-12T08:04:21.676Z,72.70
2023-02-12T08:06:51.043Z,71.90
2023-02-12T08:09:24.296Z,79.83
2023-02-12T08:11:51.044Z,70.97
2023-02-12T08:14:20.087Z,76.53
2023-02-12T08:16:48.111Z,74.83
2023-02-12T08:19:19.751Z,70.37
2023-02-12T08:21:51.914Z,80.53
2023-02-12T08:24:18.712Z,79.43
2023-02-12T08:26:45.457Z,82.77
2023-02-12T08:29:15.147Z,80.27
2023-02-12T08:31:46.565Z,78.77
2023-02-12T08:34:21.220Z,76.67
2023-02-12T08:36:49.192Z,80.93
2023-02-12T08:39:16.482Z,76.57
2023-02-12T08:41:43.860Z,72.80
2023-02-12T08:44:11.628Z,76.53
2023-02-12T08:46:40.859Z,77.93
2023-02-12T08:49:11.772Z,70.93
2023-02-12T08:51:42.522Z,71.93
2023-02-12T08:54:12.869Z,70.17
2023-02-12T08:56:40.509Z,73.97
2023-02-12T08:59:08.370Z,66.07
2023-02-12T09:01:43.362Z,72.43
2023-02-12T09:04:17.666Z,69.80
2023-02-12T09:06:45.290Z,68.73
2023-02-12T09:09:11.896Z,67.13
2023-02-12T09:11:38.526Z,70.10
2023-02-12T09:14:08.082Z,67.40
2023-02-12T09:16:36.133Z,67.70
2023-02-12T09:19:02.994Z,62.80
2023-02-12T09:21:29.599Z,66.67
2023-02-12T09:23:56.600Z,69.70
2023-02-12T09:26:27.835Z,63.73
2023-02-12T09:28:55.182Z,67.33
2023-02-12T09:31:29.849Z,70.60
2023-02-12T09:34:05.844Z,66.17
2023-02-12T09:36:33.418Z,71.23
2023-02-12T09:39:00.692Z,70.67
2023-02-12T09:41:41.831Z,68.77
2023-02-12T09:44:33.766Z,94.93
2023-02-12T09:47:11.410Z,74.33
2023-02-12T09:49:48.328Z,74.17
2023-02-12T09:52:22.204Z,71.60
2023-02-12T09:54:50.305Z,66.07
2023-02-12T09:57:25.079Z,72.17
2023-02-12T10:00:08.646Z,70.37
2023-02-12T10:02:40.571Z,71.93
2023-02-12T10:05:20.091Z,67.10
2023-02-12T10:08:09.128Z,62.93
2023-02-12T10:11:00.912Z,63.73
2023-02-12T10:14:00.132Z,62.97
2023-02-12T10:16:44.210Z,71.20
2023-02-12T10:19:38.649Z,66.13
2023-02-12T10:22:24.182Z,65.30
2023-02-12T10:25:03.621Z,64.40
2023-02-12T10:27:49.057Z,63.97
2023-02-12T10:30:21.160Z,61.43
2023-02-12T10:32:52.671Z,66.93
2023-02-12T10:35:22.554Z,63.90
2023-02-12T10:38:03.118Z,64.17
2023-02-12T10:40:33.919Z,60.77
2023-02-12T10:43:02.021Z,62.23
2023-02-12T10:45:36.540Z,58.43
2023-02-12T10:48:30.204Z,61.83
2023-02-12T10:51:12.711Z,64.10
2023-02-12T10:53:44.712Z,60.93
2023-02-12T10:56:21.134Z,62.90
2023-02-12T10:58:52.313Z,61.93
2023-02-12T11:01:38.768Z,65.73
2023-02-12T11:04:33.208Z,61.17
2023-02-12T11:07:08.849Z,65.93
2023-02-12T11:09:50.271Z,63.30
2023-02-12T11:12:29.492Z,68.63
2023-02-12T11:15:04.120Z,64.40
2023-02-12T11:17:45.121Z,63.50
2023-02-12T11:20:25.458Z,67.27
2023-02-12T11:22:58.228Z,65.00
2023-02-12T11:25:31.903Z,64.13
2023-02-12T11:28:19.297Z,61.83
2023-02-12T11:30:58.704Z,64.47
2023-02-12T11:33:34.803Z,68.80
2023-02-12T11:36:07.225Z,67.37
2023-02-12T11:38:37.947Z,79.60
2023-02-12T11:41:22.815Z,70.17
2023-02-12T11:43:50.886Z,60.80
2023-02-12T11:46:25.038Z,60.43
2023-02-12T11:48:53.444Z,63.17
2023-02-12T11:51:29.145Z,61.50
2023-02-12T11:54:01.232Z,59.60
2023-02-12T11:56:46.264Z,60.60
2023-02-12T11:59:28.475Z,61.93
2023-02-12T12:01:58.230Z,60.00
2023-02-12T12:04:27.890Z,65.03
2023-02-12T12:07:13.829Z,54.90
2023-02-12T12:10:12.705Z,56.60
2023-02-12T12:12:48.141Z,56.77
2023-02-12T12:15:49.065Z,50.63
2023-02-12T12:18:44.377Z,56.60
2023-02-12T12:21:17.231Z,63.87
2023-02-12T12:23:51.116Z,67.40
2023-02-12T12:26:30.183Z,60.50
2023-02-12T12:29:22.077Z,55.67
2023-02-12T12:31:56.194Z,61.37
2023-02-12T12:34:25.203Z,55.37
2023-02-12T12:37:34.941Z,59.27
2023-02-12T12:40:27.749Z,62.33
2023-02-12T12:43:19.224Z,59.57
2023-02-12T12:46:00.778Z,56.80
2023-02-12T12:48:59.311Z,54.23
2023-02-12T12:51:55.338Z,57.43
2023-02-12T12:54:45.689Z,57.03
2023-02-12T12:57:35.189Z,52.83
2023-02-12T13:00:12.787Z,59.10
2023-02-12T13:03:01.453Z,53.37
2023-02-12T13:05:58.819Z,50.93
2023-02-12T13:08:39.789Z,54.43
2023-02-12T13:11:32.459Z,51.40
2023-02-12T13:14:27.504Z,50.27
2023-02-12T13:17:09.240Z,53.17
2023-02-12T13:19:41.364Z,49.37
2023-02-12T13:22:18.168Z,47.60
2023-02-12T13:25:02.020Z,50.90
2023-02-12T13:27:34.603Z,54.07
2023-02-12T13:30:16.074Z,52.63
2023-02-12T13:32:45.415Z,51.13
2023-02-12T13:35:19.291Z,52.97
2023-02-12T13:37:49.374Z,55.27
2023-02-12T13:40:19.173Z,53.97
2023-02-12T13:43:11.656Z,54.80
2023-02-12T13:45:44.048Z,57.40
2023-02-12T13:48:23.868Z,63.50
2023-02-12T13:51:05.311Z,60.20
2023-02-12T13:53:59.689Z,61.87
2023-02-12T13:56:43.143Z,52.37
2023-02-12T13:59:32.811Z,62.60
2023-02-12T14:02:20.519Z,66.07
2023-02-12T14:04:55.443Z,57.50
2023-02-12T14:07:22.956Z,58.97
2023-02-12T14:09:49.915Z,58.73
2023-02-12T14:12:25.553Z,64.60
2023-02-12T14:15:05.768Z,69.50
2023-02-12T14:17:32.291Z,59.37
2023-02-12T14:20:30.861Z,61.63
2023-02-12T14:23:20.680Z,60.20
2023-02-12T14:25:55.751Z,60.87
2023-02-12T14:28:28.874Z,58.13
2023-02-12T14:31:27.633Z,64.43
2023-02-12T14:34:06.698Z,64.83
2023-02-12T14:36:33.329Z,60.97
2023-02-12T14:39:05.133Z,61.47
2023-02-12T14:41:37.821Z,60.33
2023-02-12T14:44:20.630Z,51.07
2023-02-12T14:46:58.062Z,58.87
2023-02-12T14:49:34.654Z,58.67
2023-02-12T14:52:13.334Z,55.40
2023-02-12T14:54:50.611Z,59.87
2023-02-12T14:57:31.888Z,56.17
2023-02-12T15:00:00.602Z,60.10
2023-02-12T15:02:30.362Z,55.57
2023-02-12T15:05:02.334Z,58.30
2023-02-12T15:07:40.876Z,59.77
2023-02-12T15:10:13.608Z,55.27
2023-02-12T15:12:46.428Z,58.73
2023-02-12T15:15:25.260Z,59.13
2023-02-12T15:18:24.801Z,57.57
2023-02-12T15:20:59.444Z,58.50
2023-02-12T15:23:41.161Z,56.40
2023-02-12T15:26:20.390Z,59.40
2023-02-12T15:28:50.131Z,68.33
2023-02-12T15:31:25.429Z,67.37
2023-02-12T15:33:55.653Z,58.70
2023-02-12T15:36:24.959Z,55.87
2023-02-12T15:38:57.827Z,53.00
2023-02-12T15:41:44.772Z,59.57
2023-02-12T15:44:25.184Z,55.73
2023-02-12T15:47:08.260Z,54.23
2023-02-12T15:49:37.205Z,55.23
2023-02-12T15:52:16.545Z,53.27
2023-02-12T15:54:45.822Z,51.93
2023-02-12T15:57:18.868Z,58.00
2023-02-12T15:59:51.422Z,55.90
2023-02-12T16:02:24.754Z,53.40
2023-02-12T16:04:51.512Z,54.07
2023-02-12T16:07:19.181Z,55.83
2023-02-12T16:09:46.797Z,55.03
2023-02-12T16:12:18.245Z,55.47
2023-02-12T16:14:54.108Z,59.60
2023-02-12T16:17:32.253Z,55.67
2023-02-12T16:20:20.134Z,52.77
2023-02-12T16:22:49.236Z,57.37
2023-02-12T16:25:19.644Z,55.57
2023-02-12T16:27:53.882Z,54.27
2023-02-12T16:30:38.653Z,52.40
2023-02-12T16:33:25.765Z,53.80
2023-02-12T16:36:25.680Z,56.03
2023-02-12T16:39:04.954Z,55.20
2023-02-12T16:41:32.409Z,57.50
2023-02-12T16:44:01.810Z,58.17
2023-02-12T16:46:45.043Z,58.50
2023-02-12T16:49:23.374Z,55.77
2023-02-12T16:51:50.809Z,61.80
2023-02-12T16:54:33.918Z,64.17
2023-02-12T16:57:01.306Z,56.77
2023-02-12T16:59:28.606Z,56.73
2023-02-12T17:02:17.764Z,60.37
2023-02-12T17:04:44.380Z,63.90
2023-02-12T17:07:31.256Z,76.90
2023-02-12T17:09:58.060Z,76.33
2023-02-12T17:12:24.762Z,71.60
2023-02-12T17:14:51.530Z,65.63
2023-02-12T17:17:18.281Z,61.73
2023-02-12T17:19:44.929Z,63.77
2023-02-12T17:22:22.021Z,65.03
2023-02-12T17:24:51.322Z,71.03
2023-02-12T17:27:19.151Z,63.20
2023-02-12T17:29:45.888Z,73.00
2023-02-12T17:32:13.259Z,62.50
2023-02-12T17:34:48.553Z,69.00
2023-02-12T17:37:16.339Z,64.60
2023-02-12T17:39:43.002Z,69.13
2023-02-12T17:42:09.786Z,68.77
2023-02-12T17:44:36.468Z,62.73
2023-02-12T17:47:03.108Z,67.40
2023-02-12T17:49:31.267Z,67.57
2023-02-12T17:51:57.880Z,70.80
2023-02-12T17:54:24.487Z,73.90
2023-02-12T17:56:51.070Z,71.60
2023-02-12T17:59:17.632Z,73.07
2023-02-12T18:01:45.489Z,66.03
2023-02-12T18:04:12.370Z,73.57
2023-02-12T18:06:38.997Z,69.83
2023-02-12T18:09:05.633Z,71.43
2023-02-12T18:11:33.100Z,67.23
2023-02-12T18:14:00.283Z,65.63
2023-02-12T18:16:31.894Z,74.13
2023-02-12T18:18:59.880Z,72.03
2023-02-12T18:21:26.575Z,68.87
2023-02-12T18:23:54.116Z,71.70
2023-02-12T18:26:21.985Z,70.40
2023-02-12T18:28:49.120Z,68.23
2023-02-12T18:31:16.332Z,64.63
2023-02-12T18:33:42.994Z,65.17
2023-02-12T18:36:12.643Z,65.30
2023-02-12T18:38:41.610Z,70.67
2023-02-12T18:41:10.953Z,69.83
2023-02-12T18:43:37.846Z,67.73
2023-02-12T18:46:19.409Z,66.40
2023-02-12T18:48:46.355Z,64.73
2023-02-12T18:51:19.236Z,79.20
2023-02-12T18:53:46.249Z,64.20
2023-02-12T18:56:13.937Z,69.20
2023-02-12T18:58:40.699Z,64.20
2023-02-12T19:01:19.198Z,71.27
2023-02-12T19:03:46.931Z,74.73
2023-02-12T19:06:14.101Z,72.37
2023-02-12T19:08:41.077Z,72.93
2023-02-12T19:11:09.548Z,77.80
2023-02-12T19:13:36.383Z,75.63
2023-02-12T19:16:14.324Z,75.40
2023-02-12T19:18:41.659Z,79.63
2023-02-12T19:21:10.763Z,90.37
2023-02-12T19:23:38.241Z,81.27
2023-02-12T19:26:05.927Z,85.67
2023-02-12T19:28:34.131Z,85.53
2023-02-12T19:31:13.448Z,82.63
2023-02-12T19:33:42.149Z,85.80
2023-02-12T19:36:11.280Z,86.37
2023-02-12T19:38:38.751Z,82.47
2023-02-12T19:41:08.392Z,88.33
2023-02-12T19:43:35.529Z,91.30
2023-02-12T19:46:08.048Z,82.50
2023-02-12T19:48:35.537Z,85.17
2023-02-12T19:51:02.540Z,86.37
2023-02-12T19:53:29.294Z,86.67
2023-02-12T19:55:56.656Z,85.67
2023-02-12T19:58:23.392Z,83.40
2023-02-12T20:00:49.936Z,85.17
2023-02-12T20:03:18.024Z,88.60
2023-02-12T20:05:46.643Z,89.87
2023-02-12T20:08:13.834Z,96.63
2023-02-12T20:10:41.139Z,95.97
2023-02-12T20:13:08.678Z,94.77
2023-02-12T20:15:39.375Z,89.97
2023-02-12T20:18:07.422Z,96.40
2023-02-12T20:20:35.237Z,97.47
2023-02-12T20:23:02.100Z,99.20
2023-02-12T20:25:30.004Z,99.90
2023-02-12T20:27:57.426Z,96.67
2023-02-12T20:30:24.198Z,99.70
2023-02-12T20:32:50.855Z,103.13
2023-02-12T20:35:17.438Z,97.50
2023-02-12T20:37:45.819Z,99.03
2023-02-12T20:40:12.572Z,103.77
2023-02-12T20:42:40.219Z,87.90
2023-02-12T20:45:07.115Z,95.33
2023-02-12T20:47:34.002Z,94.70
2023-02-12T20:50:00.658Z,87.60
2023-02-12T20:52:27.528Z,94.10
2023-02-12T20:54:54.090Z,96.27
2023-02-12T20:57:20.668Z,97.23
2023-02-12T20:59:48.932Z,109.17
2023-02-12T21:02:16.416Z,121.67
2023-02-12T21:04:42.968Z,141.30
2023-02-12T21:07:09.541Z,183.50
2023-02-12T21:09:36.076Z,157.53
2023-02-12T21:12:02.657Z,157.63
2023-02-12T21:14:29.240Z,173.80
2023-02-12T21:16:56.340Z,170.23
2023-02-12T21:19:23.881Z,181.07
2023-02-12T21:21:50.465Z,131.70
2023-02-12T21:24:21.422Z,126.47
2023-02-12T21:26:48.188Z,136.80
2023-02-12T21:29:14.771Z,142.43
2023-02-12T21:31:43.945Z,134.17
2023-02-12T21:34:14.004Z,141.03
2023-02-12T21:36:41.975Z,128.77
2023-02-12T21:39:13.012Z,141.30
2023-02-12T21:41:41.318Z,131.93
2023-02-12T21:44:11.744Z,124.50
2023-02-12T21:46:38.344Z,123.97
2023-02-12T21:49:05.957Z,130.73
2023-02-12T21:51:40.892Z,129.20
2023-02-12T21:54:11.738Z,136.37
2023-02-12T21:56:40.197Z,138.43
2023-02-12T21:59:08.592Z,129.70
2023-02-12T22:01:37.644Z,132.37
2023-02-12T22:04:06.551Z,122.30
2023-02-12T22:06:36.457Z,132.63
2023-02-12T22:09:07.680Z,138.20
2023-02-12T22:11:35.525Z,129.37
2023-02-12T22:14:04.251Z,133.43
2023-02-12T22:16:31.198Z,128.17
2023-02-12T22:19:00.129Z,132.70
2023-02-12T22:21:28.588Z,127.83
2023-02-12T22:23:55.437Z,135.60
2023-02-12T22:26:25.926Z,122.97
2023-02-12T22:28:55.157Z,130.97
2023-02-12T22:31:24.493Z,114.23
2023-02-12T22:33:54.116Z,109.70
2023-02-12T22:36:25.033Z,120.00
2023-02-12T22:38:53.220Z,114.77
2023-02-12T22:41:20.141Z,131.53
2023-02-12T22:43:46.762Z,120.87
2023-02-12T22:46:15.183Z,107.87
2023-02-12T22:48:41.986Z,115.37
2023-02-12T22:51:36.743Z,106.73
2023-02-12T22:54:04.022Z,108.87
2023-02-12T22:56:30.605Z,111.10
2023-02-12T22:59:00.204Z,98.27
2023-02-12T23:01:28.398Z,96.10
2023-02-12T23:03:55.662Z,79.33
2023-02-12T23:06:25.597Z,91.93
2023-02-12T23:08:54.459Z,84.27
2023-02-12T23:11:21.361Z,77.20
2023-02-12T23:13:47.912Z,82.80
2023-02-12T23:16:14.656Z,84.03
2023-02-12T23:18:41.280Z,82.27
2023-02-12T23:21:07.928Z,74.27
2023-02-12T23:23:34.647Z,70.27
2023-02-12T23:26:01.670Z,68.67
2023-02-12T23:28:29.518Z,74.90
2023-02-12T23:30:57.085Z,84.77
2023-02-12T23:33:24.623Z,72.60
2023-02-12T23:35:51.430Z,67.77
2023-02-12T23:38:18.574Z,73.43
2023-02-12T23:40:46.434Z,78.30
2023-02-12T23:43:12.975Z,65.23
2023-02-12T23:45:39.635Z,59.20
2023-02-12T23:48:06.295Z,57.73
2023-02-12T23:50:32.872Z,59.87
2023-02-12T23:52:59.823Z,51.57
2023-02-12T23:55:26.664Z,56.70
2023-02-12T23:57:53.287Z,59.53
